sensor_id;sensor_type;location;lat;lon;timestamp;P1;durP1;ratioP1;P2;durP2;ratioP2
8327;SDS011;4201;48.754;8.864;2023-05-23T00:00:18;23.80;;;19.60;;
8327;SDS011;4201;48.754;8.864;2023-05-23T00:02:44;26.50;;;21.13;;
8327;SDS011;4201;48.754;8.864;2023-05-23T00:05:10;26.93;;;21.50;;
8327;SDS011;4201;48.754;8.864;2023-05-23T00:07:39;27.87;;;22.20;;
8327;SDS011;4201;48.754;8.864;2023-05-23T00:10:06;31.47;;;25.17;;
8327;SDS011;4201;48.754;8.864;2023-05-23T00:12:32;29.67;;;23.30;;
8327;SDS011;4201;48.754;8.864;2023-05-23T00:14:58;43.93;;;29.83;;
8327;SDS011;4201;48.754;8.864;2023-05-23T00:17:26;41.07;;;30.57;;
8327;SDS011;4201;48.754;8.864;2023-05-23T00:19:52;43.43;;;31.83;;
8327;SDS011;4201;48.754;8.864;2023-05-23T00:22:19;39.20;;;29.90;;
8327;SDS011;4201;48.754;8.864;2023-05-23T00:24:46;36.90;;;29.70;;
8327;SDS011;4201;48.754;8.864;2023-05-23T00:27:12;49.00;;;33.50;;
8327;SDS011;4201;48.754;8.864;2023-05-23T00:29:38;48.60;;;35.77;;
8327;SDS011;4201;48.754;8.864;2023-05-23T00:32:04;49.90;;;35.60;;
8327;SDS011;4201;48.754;8.864;2023-05-23T00:34:32;55.10;;;35.97;;
8327;SDS011;4201;48.754;8.864;2023-05-23T00:37:00;51.70;;;36.87;;
8327;SDS011;4201;48.754;8.864;2023-05-23T00:39:27;54.93;;;37.80;;
8327;SDS011;4201;48.754;8.864;2023-05-23T00:41:53;62.80;;;40.73;;
8327;SDS011;4201;48.754;8.864;2023-05-23T00:44:20;57.30;;;41.53;;
8327;SDS011;4201;48.754;8.864;2023-05-23T00:46:47;57.17;;;38.57;;
8327;SDS011;4201;48.754;8.864;2023-05-23T00:49:14;60.93;;;40.10;;
8327;SDS011;4201;48.754;8.864;2023-05-23T00:51:45;60.20;;;40.00;;
8327;SDS011;4201;48.754;8.864;2023-05-23T00:54:13;54.40;;;38.80;;
8327;SDS011;4201;48.754;8.864;2023-05-23T00:56:41;61.30;;;40.43;;
8327;SDS011;4201;48.754;8.864;2023-05-23T00:59:08;54.97;;;40.00;;
8327;SDS011;4201;48.754;8.864;2023-05-23T01:01:34;55.20;;;39.93;;
8327;SDS011;4201;48.754;8.864;2023-05-23T01:04:01;58.67;;;42.07;;
8327;SDS011;4201;48.754;8.864;2023-05-23T01:06:28;65.73;;;45.37;;
8327;SDS011;4201;48.754;8.864;2023-05-23T01:08:55;65.30;;;42.93;;
8327;SDS011;4201;48.754;8.864;2023-05-23T01:11:26;65.00;;;43.93;;
8327;SDS011;4201;48.754;8.864;2023-05-23T01:13:56;70.20;;;46.17;;
8327;SDS011;4201;48.754;8.864;2023-05-23T01:16:27;70.97;;;46.57;;
8327;SDS011;4201;48.754;8.864;2023-05-23T01:18:56;77.00;;;51.80;;
8327;SDS011;4201;48.754;8.864;2023-05-23T01:21:24;79.77;;;50.97;;
8327;SDS011;4201;48.754;8.864;2023-05-23T01:24:02;86.43;;;57.20;;
8327;SDS011;4201;48.754;8.864;2023-05-23T01:26:31;98.43;;;61.40;;
8327;SDS011;4201;48.754;8.864;2023-05-23T01:29:01;111.27;;;67.60;;
8327;SDS011;4201;48.754;8.864;2023-05-23T01:31:34;112.70;;;66.80;;
8327;SDS011;4201;48.754;8.864;2023-05-23T01:34:01;132.47;;;76.03;;
8327;SDS011;4201;48.754;8.864;2023-05-23T01:36:27;129.03;;;80.20;;
8327;SDS011;4201;48.754;8.864;2023-05-23T01:38:53;120.80;;;74.80;;
8327;SDS011;4201;48.754;8.864;2023-05-23T01:41:20;138.43;;;78.33;;
8327;SDS011;4201;48.754;8.864;2023-05-23T01:43:46;127.27;;;73.97;;
8327;SDS011;4201;48.754;8.864;2023-05-23T01:46:13;127.27;;;76.90;;
8327;SDS011;4201;48.754;8.864;2023-05-23T01:48:41;139.37;;;80.00;;
8327;SDS011;4201;48.754;8.864;2023-05-23T01:51:07;128.83;;;79.43;;
8327;SDS011;4201;48.754;8.864;2023-05-23T01:53:34;128.17;;;78.60;;
8327;SDS011;4201;48.754;8.864;2023-05-23T01:56:00;125.53;;;76.40;;
8327;SDS011;4201;48.754;8.864;2023-05-23T01:58:27;134.43;;;79.40;;
8327;SDS011;4201;48.754;8.864;2023-05-23T02:00:53;122.93;;;79.83;;
8327;SDS011;4201;48.754;8.864;2023-05-23T02:03:22;124.40;;;74.87;;
8327;SDS011;4201;48.754;8.864;2023-05-23T02:05:48;127.33;;;79.23;;
8327;SDS011;4201;48.754;8.864;2023-05-23T02:08:14;118.07;;;75.87;;
8327;SDS011;4201;48.754;8.864;2023-05-23T02:10:41;132.90;;;81.17;;
8327;SDS011;4201;48.754;8.864;2023-05-23T02:13:07;120.43;;;72.50;;
8327;SDS011;4201;48.754;8.864;2023-05-23T02:15:33;119.30;;;74.50;;
8327;SDS011;4201;48.754;8.864;2023-05-23T02:17:59;113.63;;;73.73;;
8327;SDS011;4201;48.754;8.864;2023-05-23T02:20:28;124.37;;;72.13;;
8327;SDS011;4201;48.754;8.864;2023-05-23T02:22:54;121.03;;;77.80;;
8327;SDS011;4201;48.754;8.864;2023-05-23T02:25:20;124.07;;;77.90;;
8327;SDS011;4201;48.754;8.864;2023-05-23T02:27:47;111.17;;;72.30;;
8327;SDS011;4201;48.754;8.864;2023-05-23T02:30:13;127.30;;;79.63;;
8327;SDS011;4201;48.754;8.864;2023-05-23T02:32:39;111.73;;;76.50;;
8327;SDS011;4201;48.754;8.864;2023-05-23T02:35:06;122.70;;;78.33;;
8327;SDS011;4201;48.754;8.864;2023-05-23T02:37:33;108.57;;;68.50;;
8327;SDS011;4201;48.754;8.864;2023-05-23T02:40:00;121.40;;;74.47;;
8327;SDS011;4201;48.754;8.864;2023-05-23T02:42:26;120.10;;;74.73;;
8327;SDS011;4201;48.754;8.864;2023-05-23T02:44:52;110.00;;;70.90;;
8327;SDS011;4201;48.754;8.864;2023-05-23T02:47:18;120.53;;;74.93;;
8327;SDS011;4201;48.754;8.864;2023-05-23T02:49:45;121.53;;;75.67;;
8327;SDS011;4201;48.754;8.864;2023-05-23T02:52:11;116.47;;;75.60;;
8327;SDS011;4201;48.754;8.864;2023-05-23T02:54:38;119.33;;;73.60;;
8327;SDS011;4201;48.754;8.864;2023-05-23T02:57:05;105.37;;;69.63;;
8327;SDS011;4201;48.754;8.864;2023-05-23T02:59:31;114.30;;;77.77;;
8327;SDS011;4201;48.754;8.864;2023-05-23T03:01:57;119.17;;;77.10;;
8327;SDS011;4201;48.754;8.864;2023-05-23T03:04:24;113.50;;;69.40;;
8327;SDS011;4201;48.754;8.864;2023-05-23T03:06:51;117.00;;;76.53;;
8327;SDS011;4201;48.754;8.864;2023-05-23T03:09:18;115.43;;;75.90;;
8327;SDS011;4201;48.754;8.864;2023-05-23T03:11:46;107.13;;;70.80;;
8327;SDS011;4201;48.754;8.864;2023-05-23T03:14:13;99.17;;;65.43;;
8327;SDS011;4201;48.754;8.864;2023-05-23T03:16:39;112.43;;;73.83;;
8327;SDS011;4201;48.754;8.864;2023-05-23T03:19:05;92.23;;;68.10;;
8327;SDS011;4201;48.754;8.864;2023-05-23T03:21:31;95.23;;;66.87;;
8327;SDS011;4201;48.754;8.864;2023-05-23T03:23:59;84.70;;;60.30;;
8327;SDS011;4201;48.754;8.864;2023-05-23T03:26:25;85.57;;;63.13;;
8327;SDS011;4201;48.754;8.864;2023-05-23T03:28:52;83.63;;;56.07;;
8327;SDS011;4201;48.754;8.864;2023-05-23T03:31:19;82.77;;;60.30;;
8327;SDS011;4201;48.754;8.864;2023-05-23T03:33:45;89.87;;;60.77;;
8327;SDS011;4201;48.754;8.864;2023-05-23T03:36:11;84.00;;;59.90;;
8327;SDS011;4201;48.754;8.864;2023-05-23T03:38:37;88.80;;;60.37;;
8327;SDS011;4201;48.754;8.864;2023-05-23T03:41:04;94.47;;;63.50;;
8327;SDS011;4201;48.754;8.864;2023-05-23T03:43:30;86.17;;;60.70;;
8327;SDS011;4201;48.754;8.864;2023-05-23T03:45:59;86.90;;;61.67;;
8327;SDS011;4201;48.754;8.864;2023-05-23T03:48:25;96.37;;;65.27;;
8327;SDS011;4201;48.754;8.864;2023-05-23T03:50:51;98.10;;;68.00;;
8327;SDS011;4201;48.754;8.864;2023-05-23T03:53:17;98.80;;;62.63;;
8327;SDS011;4201;48.754;8.864;2023-05-23T03:55:44;94.37;;;57.23;;
8327;SDS011;4201;48.754;8.864;2023-05-23T03:58:10;93.20;;;62.73;;
8327;SDS011;4201;48.754;8.864;2023-05-23T04:00:36;87.67;;;56.60;;
8327;SDS011;4201;48.754;8.864;2023-05-23T04:03:04;93.50;;;64.13;;
8327;SDS011;4201;48.754;8.864;2023-05-23T04:05:30;81.83;;;56.57;;
8327;SDS011;4201;48.754;8.864;2023-05-23T04:07:56;92.83;;;63.13;;
8327;SDS011;4201;48.754;8.864;2023-05-23T04:10:25;79.87;;;57.80;;
8327;SDS011;4201;48.754;8.864;2023-05-23T04:12:51;86.83;;;59.40;;
8327;SDS011;4201;48.754;8.864;2023-05-23T04:15:17;96.13;;;63.23;;
8327;SDS011;4201;48.754;8.864;2023-05-23T04:17:45;95.40;;;63.20;;
8327;SDS011;4201;48.754;8.864;2023-05-23T04:20:12;86.43;;;63.60;;
8327;SDS011;4201;48.754;8.864;2023-05-23T04:22:39;79.80;;;62.87;;
8327;SDS011;4201;48.754;8.864;2023-05-23T04:25:05;89.90;;;64.47;;
8327;SDS011;4201;48.754;8.864;2023-05-23T04:27:32;93.83;;;66.33;;
8327;SDS011;4201;48.754;8.864;2023-05-23T04:29:58;95.33;;;63.00;;
8327;SDS011;4201;48.754;8.864;2023-05-23T04:32:24;87.93;;;61.60;;
8327;SDS011;4201;48.754;8.864;2023-05-23T04:34:51;86.43;;;62.07;;
8327;SDS011;4201;48.754;8.864;2023-05-23T04:37:18;100.83;;;67.53;;
8327;SDS011;4201;48.754;8.864;2023-05-23T04:39:49;80.77;;;62.33;;
8327;SDS011;4201;48.754;8.864;2023-05-23T04:42:16;95.30;;;71.47;;
8327;SDS011;4201;48.754;8.864;2023-05-23T04:44:42;93.43;;;68.90;;
8327;SDS011;4201;48.754;8.864;2023-05-23T04:47:08;93.03;;;70.43;;
8327;SDS011;4201;48.754;8.864;2023-05-23T04:49:36;104.63;;;72.70;;
8327;SDS011;4201;48.754;8.864;2023-05-23T04:52:02;98.57;;;75.60;;
8327;SDS011;4201;48.754;8.864;2023-05-23T04:54:29;87.77;;;64.73;;
8327;SDS011;4201;48.754;8.864;2023-05-23T04:56:57;98.10;;;76.27;;
8327;SDS011;4201;48.754;8.864;2023-05-23T04:59:23;98.77;;;72.07;;
8327;SDS011;4201;48.754;8.864;2023-05-23T05:01:49;109.20;;;76.77;;
8327;SDS011;4201;48.754;8.864;2023-05-23T05:04:15;102.17;;;77.60;;
8327;SDS011;4201;48.754;8.864;2023-05-23T05:06:42;96.20;;;67.73;;
8327;SDS011;4201;48.754;8.864;2023-05-23T05:09:08;104.10;;;75.97;;
8327;SDS011;4201;48.754;8.864;2023-05-23T05:11:35;98.73;;;73.13;;
8327;SDS011;4201;48.754;8.864;2023-05-23T05:14:02;100.83;;;75.03;;
8327;SDS011;4201;48.754;8.864;2023-05-23T05:16:28;98.33;;;74.40;;
8327;SDS011;4201;48.754;8.864;2023-05-23T05:18:54;104.70;;;72.70;;
8327;SDS011;4201;48.754;8.864;2023-05-23T05:21:21;107.97;;;77.57;;
8327;SDS011;4201;48.754;8.864;2023-05-23T05:23:47;99.70;;;75.27;;
8327;SDS011;4201;48.754;8.864;2023-05-23T05:26:13;110.33;;;75.77;;
8327;SDS011;4201;48.754;8.864;2023-05-23T05:28:41;102.47;;;75.70;;
8327;SDS011;4201;48.754;8.864;2023-05-23T05:31:07;106.27;;;75.07;;
8327;SDS011;4201;48.754;8.864;2023-05-23T05:33:34;102.87;;;78.50;;
8327;SDS011;4201;48.754;8.864;2023-05-23T05:36:01;91.87;;;70.67;;
8327;SDS011;4201;48.754;8.864;2023-05-23T05:38:27;99.70;;;74.33;;
8327;SDS011;4201;48.754;8.864;2023-05-23T05:40:54;101.53;;;77.80;;
8327;SDS011;4201;48.754;8.864;2023-05-23T05:43:20;90.60;;;70.97;;
8327;SDS011;4201;48.754;8.864;2023-05-23T05:45:48;94.13;;;67.20;;
8327;SDS011;4201;48.754;8.864;2023-05-23T05:48:14;93.20;;;73.63;;
8327;SDS011;4201;48.754;8.864;2023-05-23T05:50:40;82.67;;;64.77;;
8327;SDS011;4201;48.754;8.864;2023-05-23T05:53:09;98.20;;;74.03;;
8327;SDS011;4201;48.754;8.864;2023-05-23T05:55:35;97.47;;;67.63;;
8327;SDS011;4201;48.754;8.864;2023-05-23T05:58:01;96.03;;;76.10;;
8327;SDS011;4201;48.754;8.864;2023-05-23T06:00:28;92.00;;;75.17;;
8327;SDS011;4201;48.754;8.864;2023-05-23T06:02:56;86.13;;;68.70;;
8327;SDS011;4201;48.754;8.864;2023-05-23T06:05:22;88.17;;;68.00;;
8327;SDS011;4201;48.754;8.864;2023-05-23T06:07:48;91.53;;;72.63;;
8327;SDS011;4201;48.754;8.864;2023-05-23T06:10:15;82.07;;;64.10;;
8327;SDS011;4201;48.754;8.864;2023-05-23T06:12:41;75.50;;;59.10;;
8327;SDS011;4201;48.754;8.864;2023-05-23T06:15:09;79.53;;;62.80;;
8327;SDS011;4201;48.754;8.864;2023-05-23T06:17:37;71.87;;;60.50;;
8327;SDS011;4201;48.754;8.864;2023-05-23T06:20:05;70.37;;;57.90;;
8327;SDS011;4201;48.754;8.864;2023-05-23T06:22:32;74.30;;;59.00;;
8327;SDS011;4201;48.754;8.864;2023-05-23T06:24:58;69.70;;;56.27;;
8327;SDS011;4201;48.754;8.864;2023-05-23T06:27:24;76.67;;;60.53;;
8327;SDS011;4201;48.754;8.864;2023-05-23T06:29:50;69.97;;;57.80;;
8327;SDS011;4201;48.754;8.864;2023-05-23T06:32:17;68.87;;;55.37;;
8327;SDS011;4201;48.754;8.864;2023-05-23T06:34:43;70.10;;;55.97;;
8327;SDS011;4201;48.754;8.864;2023-05-23T06:37:11;70.83;;;59.90;;
8327;SDS011;4201;48.754;8.864;2023-05-23T06:39:37;68.70;;;58.53;;
8327;SDS011;4201;48.754;8.864;2023-05-23T06:42:03;71.97;;;57.43;;
8327;SDS011;4201;48.754;8.864;2023-05-23T06:44:30;72.87;;;56.07;;
8327;SDS011;4201;48.754;8.864;2023-05-23T06:46:56;65.40;;;51.60;;
8327;SDS011;4201;48.754;8.864;2023-05-23T06:49:22;64.67;;;52.33;;
8327;SDS011;4201;48.754;8.864;2023-05-23T06:51:49;65.27;;;53.70;;
8327;SDS011;4201;48.754;8.864;2023-05-23T06:54:16;64.97;;;49.30;;
8327;SDS011;4201;48.754;8.864;2023-05-23T06:56:43;60.47;;;50.47;;
8327;SDS011;4201;48.754;8.864;2023-05-23T06:59:09;60.73;;;52.27;;
8327;SDS011;4201;48.754;8.864;2023-05-23T07:01:35;67.20;;;51.60;;
8327;SDS011;4201;48.754;8.864;2023-05-23T07:04:01;66.83;;;55.17;;
8327;SDS011;4201;48.754;8.864;2023-05-23T07:06:28;68.37;;;56.83;;
8327;SDS011;4201;48.754;8.864;2023-05-23T07:08:55;61.40;;;51.30;;
8327;SDS011;4201;48.754;8.864;2023-05-23T07:11:22;56.73;;;46.57;;
8327;SDS011;4201;48.754;8.864;2023-05-23T07:13:49;49.77;;;41.53;;
8327;SDS011;4201;48.754;8.864;2023-05-23T07:16:15;48.07;;;38.80;;
8327;SDS011;4201;48.754;8.864;2023-05-23T07:18:41;54.73;;;44.70;;
8327;SDS011;4201;48.754;8.864;2023-05-23T07:21:08;50.33;;;44.87;;
8327;SDS011;4201;48.754;8.864;2023-05-23T07:23:34;53.90;;;45.83;;
8327;SDS011;4201;48.754;8.864;2023-05-23T07:26:00;52.77;;;43.97;;
8327;SDS011;4201;48.754;8.864;2023-05-23T07:28:28;51.33;;;42.43;;
8327;SDS011;4201;48.754;8.864;2023-05-23T07:30:55;53.33;;;46.23;;
8327;SDS011;4201;48.754;8.864;2023-05-23T07:33:22;48.40;;;40.60;;
8327;SDS011;4201;48.754;8.864;2023-05-23T07:35:48;49.60;;;42.70;;
8327;SDS011;4201;48.754;8.864;2023-05-23T07:38:15;51.67;;;38.90;;
8327;SDS011;4201;48.754;8.864;2023-05-23T07:40:41;51.33;;;44.27;;
8327;SDS011;4201;48.754;8.864;2023-05-23T07:43:07;50.83;;;43.57;;
8327;SDS011;4201;48.754;8.864;2023-05-23T07:45:35;48.53;;;38.53;;
8327;SDS011;4201;48.754;8.864;2023-05-23T07:48:01;46.07;;;38.60;;
8327;SDS011;4201;48.754;8.864;2023-05-23T07:50:27;43.10;;;38.40;;
8327;SDS011;4201;48.754;8.864;2023-05-23T07:52:53;44.13;;;37.23;;
8327;SDS011;4201;48.754;8.864;2023-05-23T07:55:19;50.97;;;38.30;;
8327;SDS011;4201;48.754;8.864;2023-05-23T07:57:46;43.67;;;35.70;;
8327;SDS011;4201;48.754;8.864;2023-05-23T08:00:12;47.10;;;36.10;;
8327;SDS011;4201;48.754;8.864;2023-05-23T08:02:41;38.53;;;33.10;;
8327;SDS011;4201;48.754;8.864;2023-05-23T08:05:07;39.80;;;33.60;;
8327;SDS011;4201;48.754;8.864;2023-05-23T08:07:34;37.83;;;32.73;;
8327;SDS011;4201;48.754;8.864;2023-05-23T08:10:00;40.37;;;32.63;;
8327;SDS011;4201;48.754;8.864;2023-05-23T08:12:26;38.30;;;32.90;;
8327;SDS011;4201;48.754;8.864;2023-05-23T08:14:52;42.73;;;34.03;;
8327;SDS011;4201;48.754;8.864;2023-05-23T08:17:19;37.03;;;33.20;;
8327;SDS011;4201;48.754;8.864;2023-05-23T08:19:46;41.37;;;33.50;;
8327;SDS011;4201;48.754;8.864;2023-05-23T08:22:12;39.70;;;32.20;;
8327;SDS011;4201;48.754;8.864;2023-05-23T08:24:39;36.10;;;31.27;;
8327;SDS011;4201;48.754;8.864;2023-05-23T08:27:05;38.13;;;30.50;;
8327;SDS011;4201;48.754;8.864;2023-05-23T08:29:31;36.87;;;31.53;;
8327;SDS011;4201;48.754;8.864;2023-05-23T08:31:59;39.80;;;31.63;;
8327;SDS011;4201;48.754;8.864;2023-05-23T08:34:25;36.20;;;30.90;;
8327;SDS011;4201;48.754;8.864;2023-05-23T08:36:53;40.20;;;34.05;;
8327;SDS011;4201;48.754;8.864;2023-05-23T08:39:19;40.20;;;33.97;;
8327;SDS011;4201;48.754;8.864;2023-05-23T08:41:45;38.60;;;33.20;;
8327;SDS011;4201;48.754;8.864;2023-05-23T08:44:11;37.13;;;33.03;;
8327;SDS011;4201;48.754;8.864;2023-05-23T08:46:38;38.17;;;32.30;;
8327;SDS011;4201;48.754;8.864;2023-05-23T08:49:05;42.10;;;32.30;;
8327;SDS011;4201;48.754;8.864;2023-05-23T08:51:32;37.17;;;30.10;;
8327;SDS011;4201;48.754;8.864;2023-05-23T08:54:02;35.57;;;30.80;;
8327;SDS011;4201;48.754;8.864;2023-05-23T08:56:30;36.60;;;30.73;;
8327;SDS011;4201;48.754;8.864;2023-05-23T08:58:56;35.20;;;27.80;;
8327;SDS011;4201;48.754;8.864;2023-05-23T09:01:23;33.83;;;30.17;;
8327;SDS011;4201;48.754;8.864;2023-05-23T09:03:49;33.90;;;29.10;;
8327;SDS011;4201;48.754;8.864;2023-05-23T09:06:16;33.43;;;29.33;;
8327;SDS011;4201;48.754;8.864;2023-05-23T09:08:45;32.27;;;27.90;;
8327;SDS011;4201;48.754;8.864;2023-05-23T09:11:13;29.90;;;26.70;;
8327;SDS011;4201;48.754;8.864;2023-05-23T09:13:39;34.53;;;28.20;;
8327;SDS011;4201;48.754;8.864;2023-05-23T09:16:06;35.40;;;29.60;;
8327;SDS011;4201;48.754;8.864;2023-05-23T09:18:33;38.40;;;29.90;;
8327;SDS011;4201;48.754;8.864;2023-05-23T09:21:00;34.60;;;27.50;;
8327;SDS011;4201;48.754;8.864;2023-05-23T09:23:28;33.90;;;26.97;;
8327;SDS011;4201;48.754;8.864;2023-05-23T09:25:54;31.43;;;26.80;;
8327;SDS011;4201;48.754;8.864;2023-05-23T09:28:22;26.67;;;23.73;;
8327;SDS011;4201;48.754;8.864;2023-05-23T09:30:50;29.50;;;26.50;;
8327;SDS011;4201;48.754;8.864;2023-05-23T09:33:22;27.77;;;24.33;;
8327;SDS011;4201;48.754;8.864;2023-05-23T09:35:48;29.00;;;24.13;;
8327;SDS011;4201;48.754;8.864;2023-05-23T09:38:14;26.83;;;23.73;;
8327;SDS011;4201;48.754;8.864;2023-05-23T09:40:43;29.13;;;24.63;;
8327;SDS011;4201;48.754;8.864;2023-05-23T09:43:10;25.93;;;23.27;;
8327;SDS011;4201;48.754;8.864;2023-05-23T09:45:37;24.93;;;22.20;;
8327;SDS011;4201;48.754;8.864;2023-05-23T09:48:04;28.93;;;23.80;;
8327;SDS011;4201;48.754;8.864;2023-05-23T09:50:36;28.57;;;25.63;;
8327;SDS011;4201;48.754;8.864;2023-05-23T09:53:03;24.37;;;21.60;;
8327;SDS011;4201;48.754;8.864;2023-05-23T09:55:29;25.57;;;22.87;;
8327;SDS011;4201;48.754;8.864;2023-05-23T09:57:55;27.80;;;23.60;;
8327;SDS011;4201;48.754;8.864;2023-05-23T10:00:23;24.33;;;21.57;;
8327;SDS011;4201;48.754;8.864;2023-05-23T10:02:54;26.93;;;24.17;;
8327;SDS011;4201;48.754;8.864;2023-05-23T10:05:29;25.30;;;20.43;;
8327;SDS011;4201;48.754;8.864;2023-05-23T10:07:56;23.80;;;21.20;;
8327;SDS011;4201;48.754;8.864;2023-05-23T10:10:23;23.47;;;21.00;;
8327;SDS011;4201;48.754;8.864;2023-05-23T10:12:51;22.83;;;20.40;;
8327;SDS011;4201;48.754;8.864;2023-05-23T10:15:19;22.20;;;19.83;;
8327;SDS011;4201;48.754;8.864;2023-05-23T10:18:01;21.80;;;19.50;;
8327;SDS011;4201;48.754;8.864;2023-05-23T10:20:29;21.83;;;19.27;;
8327;SDS011;4201;48.754;8.864;2023-05-23T10:22:57;24.43;;;19.07;;
8327;SDS011;4201;48.754;8.864;2023-05-23T10:25:24;19.80;;;17.70;;
8327;SDS011;4201;48.754;8.864;2023-05-23T10:27:52;21.73;;;19.47;;
8327;SDS011;4201;48.754;8.864;2023-05-23T10:30:22;25.07;;;21.63;;
8327;SDS011;4201;48.754;8.864;2023-05-23T10:32:48;21.60;;;17.97;;
8327;SDS011;4201;48.754;8.864;2023-05-23T10:35:20;20.40;;;18.30;;
8327;SDS011;4201;48.754;8.864;2023-05-23T10:37:48;22.03;;;19.63;;
8327;SDS011;4201;48.754;8.864;2023-05-23T10:40:19;24.53;;;20.50;;
8327;SDS011;4201;48.754;8.864;2023-05-23T10:42:48;25.60;;;19.90;;
8327;SDS011;4201;48.754;8.864;2023-05-23T10:45:17;22.47;;;19.80;;
8327;SDS011;4201;48.754;8.864;2023-05-23T10:47:45;23.47;;;21.07;;
8327;SDS011;4201;48.754;8.864;2023-05-23T10:50:11;23.33;;;19.60;;
8327;SDS011;4201;48.754;8.864;2023-05-23T10:52:39;25.23;;;21.27;;
8327;SDS011;4201;48.754;8.864;2023-05-23T10:55:11;22.20;;;19.33;;
8327;SDS011;4201;48.754;8.864;2023-05-23T10:57:37;20.53;;;18.43;;
8327;SDS011;4201;48.754;8.864;2023-05-23T11:00:07;22.33;;;18.10;;
8327;SDS011;4201;48.754;8.864;2023-05-23T11:02:37;18.93;;;16.90;;
8327;SDS011;4201;48.754;8.864;2023-05-23T11:05:18;20.60;;;18.13;;
8327;SDS011;4201;48.754;8.864;2023-05-23T11:07:47;20.80;;;17.73;;
8327;SDS011;4201;48.754;8.864;2023-05-23T11:10:31;21.67;;;19.00;;
8327;SDS011;4201;48.754;8.864;2023-05-23T11:13:04;18.57;;;16.67;;
8327;SDS011;4201;48.754;8.864;2023-05-23T11:15:39;19.40;;;17.40;;
8327;SDS011;4201;48.754;8.864;2023-05-23T11:18:06;18.53;;;16.63;;
8327;SDS011;4201;48.754;8.864;2023-05-23T11:20:32;17.33;;;15.37;;
8327;SDS011;4201;48.754;8.864;2023-05-23T11:23:02;16.27;;;14.10;;
8327;SDS011;4201;48.754;8.864;2023-05-23T11:25:38;14.97;;;13.37;;
8327;SDS011;4201;48.754;8.864;2023-05-23T11:28:05;14.10;;;12.60;;
8327;SDS011;4201;48.754;8.864;2023-05-23T11:30:31;14.50;;;12.93;;
8327;SDS011;4201;48.754;8.864;2023-05-23T11:32:58;16.73;;;12.97;;
8327;SDS011;4201;48.754;8.864;2023-05-23T11:35:24;14.37;;;12.87;;
8327;SDS011;4201;48.754;8.864;2023-05-23T11:37:51;18.10;;;14.30;;
8327;SDS011;4201;48.754;8.864;2023-05-23T11:40:26;13.53;;;12.03;;
8327;SDS011;4201;48.754;8.864;2023-05-23T11:42:52;17.90;;;12.77;;
8327;SDS011;4201;48.754;8.864;2023-05-23T11:45:18;14.27;;;12.03;;
8327;SDS011;4201;48.754;8.864;2023-05-23T11:47:45;14.40;;;12.90;;
8327;SDS011;4201;48.754;8.864;2023-05-23T11:50:11;14.80;;;13.20;;
8327;SDS011;4201;48.754;8.864;2023-05-23T11:52:37;14.90;;;13.03;;
8327;SDS011;4201;48.754;8.864;2023-05-23T11:55:05;21.63;;;14.80;;
8327;SDS011;4201;48.754;8.864;2023-05-23T11:57:33;13.27;;;11.97;;
8327;SDS011;4201;48.754;8.864;2023-05-23T12:00:03;14.03;;;11.40;;
8327;SDS011;4201;48.754;8.864;2023-05-23T12:02:37;12.47;;;11.03;;
8327;SDS011;4201;48.754;8.864;2023-05-23T12:05:06;16.13;;;10.40;;
8327;SDS011;4201;48.754;8.864;2023-05-23T12:07:35;11.90;;;10.70;;
8327;SDS011;4201;48.754;8.864;2023-05-23T12:10:02;10.30;;;8.93;;
8327;SDS011;4201;48.754;8.864;2023-05-23T12:12:33;9.93;;;8.93;;
8327;SDS011;4201;48.754;8.864;2023-05-23T12:15:01;10.33;;;8.53;;
8327;SDS011;4201;48.754;8.864;2023-05-23T12:17:30;9.40;;;8.40;;
8327;SDS011;4201;48.754;8.864;2023-05-23T12:20:00;9.33;;;8.40;;
8327;SDS011;4201;48.754;8.864;2023-05-23T12:22:31;8.73;;;7.20;;
8327;SDS011;4201;48.754;8.864;2023-05-23T12:25:07;9.67;;;7.20;;
8327;SDS011;4201;48.754;8.864;2023-05-23T12:27:39;8.30;;;7.40;;
8327;SDS011;4201;48.754;8.864;2023-05-23T12:30:08;8.37;;;7.47;;
8327;SDS011;4201;48.754;8.864;2023-05-23T12:32:38;10.07;;;7.80;;
8327;SDS011;4201;48.754;8.864;2023-05-23T12:35:08;10.13;;;8.47;;
8327;SDS011;4201;48.754;8.864;2023-05-23T12:37:37;9.90;;;8.63;;
8327;SDS011;4201;48.754;8.864;2023-05-23T12:40:10;9.30;;;7.60;;
8327;SDS011;4201;48.754;8.864;2023-05-23T12:42:48;9.40;;;8.37;;
8327;SDS011;4201;48.754;8.864;2023-05-23T12:45:32;9.27;;;8.37;;
8327;SDS011;4201;48.754;8.864;2023-05-23T12:48:12;8.87;;;7.73;;
8327;SDS011;4201;48.754;8.864;2023-05-23T12:50:42;9.10;;;7.30;;
8327;SDS011;4201;48.754;8.864;2023-05-23T12:53:09;8.53;;;7.63;;
8327;SDS011;4201;48.754;8.864;2023-05-23T12:55:36;8.43;;;7.53;;
8327;SDS011;4201;48.754;8.864;2023-05-23T12:58:13;8.77;;;7.93;;
8327;SDS011;4201;48.754;8.864;2023-05-23T13:00:42;8.43;;;7.40;;
8327;SDS011;4201;48.754;8.864;2023-05-23T13:03:09;8.57;;;5.90;;
8327;SDS011;4201;48.754;8.864;2023-05-23T13:05:35;10.90;;;7.57;;
8327;SDS011;4201;48.754;8.864;2023-05-23T13:08:01;8.43;;;6.67;;
8327;SDS011;4201;48.754;8.864;2023-05-23T13:10:28;6.70;;;5.77;;
8327;SDS011;4201;48.754;8.864;2023-05-23T13:12:54;8.33;;;6.50;;
8327;SDS011;4201;48.754;8.864;2023-05-23T13:15:21;8.20;;;5.40;;
8327;SDS011;4201;48.754;8.864;2023-05-23T13:17:48;7.90;;;5.60;;
8327;SDS011;4201;48.754;8.864;2023-05-23T13:20:14;8.47;;;6.03;;
8327;SDS011;4201;48.754;8.864;2023-05-23T13:22:40;7.23;;;5.90;;
8327;SDS011;4201;48.754;8.864;2023-05-23T13:25:07;7.73;;;6.10;;
8327;SDS011;4201;48.754;8.864;2023-05-23T13:27:33;10.40;;;6.43;;
8327;SDS011;4201;48.754;8.864;2023-05-23T13:29:59;9.20;;;6.63;;
8327;SDS011;4201;48.754;8.864;2023-05-23T13:32:27;6.83;;;5.97;;
8327;SDS011;4201;48.754;8.864;2023-05-23T13:34:53;7.50;;;6.80;;
8327;SDS011;4201;48.754;8.864;2023-05-23T13:37:20;7.53;;;6.13;;
8327;SDS011;4201;48.754;8.864;2023-05-23T13:39:46;8.73;;;6.07;;
8327;SDS011;4201;48.754;8.864;2023-05-23T13:42:12;9.50;;;6.43;;
8327;SDS011;4201;48.754;8.864;2023-05-23T13:44:38;7.20;;;6.20;;
8327;SDS011;4201;48.754;8.864;2023-05-23T13:47:08;6.80;;;6.00;;
8327;SDS011;4201;48.754;8.864;2023-05-23T13:49:36;8.33;;;6.70;;
8327;SDS011;4201;48.754;8.864;2023-05-23T13:52:03;7.00;;;6.07;;
8327;SDS011;4201;48.754;8.864;2023-05-23T13:54:29;6.73;;;6.00;;
8327;SDS011;4201;48.754;8.864;2023-05-23T13:56:56;8.20;;;6.27;;
8327;SDS011;4201;48.754;8.864;2023-05-23T13:59:22;7.80;;;6.17;;
8327;SDS011;4201;48.754;8.864;2023-05-23T14:01:49;6.90;;;5.60;;
8327;SDS011;4201;48.754;8.864;2023-05-23T14:04:15;6.93;;;6.23;;
8327;SDS011;4201;48.754;8.864;2023-05-23T14:06:42;8.53;;;5.90;;
8327;SDS011;4201;48.754;8.864;2023-05-23T14:09:09;8.40;;;6.20;;
8327;SDS011;4201;48.754;8.864;2023-05-23T14:11:36;7.90;;;6.43;;
8327;SDS011;4201;48.754;8.864;2023-05-23T14:14:03;8.50;;;7.30;;
8327;SDS011;4201;48.754;8.864;2023-05-23T14:16:30;7.33;;;6.40;;
8327;SDS011;4201;48.754;8.864;2023-05-23T14:18:56;6.93;;;6.23;;
8327;SDS011;4201;48.754;8.864;2023-05-23T14:21:22;7.40;;;6.57;;
8327;SDS011;4201;48.754;8.864;2023-05-23T14:23:50;7.83;;;6.17;;
8327;SDS011;4201;48.754;8.864;2023-05-23T14:26:16;8.00;;;7.10;;
8327;SDS011;4201;48.754;8.864;2023-05-23T14:28:42;10.83;;;6.87;;
8327;SDS011;4201;48.754;8.864;2023-05-23T14:31:09;10.50;;;6.73;;
8327;SDS011;4201;48.754;8.864;2023-05-23T14:33:35;8.50;;;6.60;;
8327;SDS011;4201;48.754;8.864;2023-05-23T14:36:01;8.67;;;6.23;;
8327;SDS011;4201;48.754;8.864;2023-05-23T14:38:28;6.80;;;5.80;;
8327;SDS011;4201;48.754;8.864;2023-05-23T14:40:55;7.90;;;6.90;;
8327;SDS011;4201;48.754;8.864;2023-05-23T14:43:23;7.00;;;6.30;;
8327;SDS011;4201;48.754;8.864;2023-05-23T14:45:49;8.43;;;6.07;;
8327;SDS011;4201;48.754;8.864;2023-05-23T14:48:15;9.87;;;5.40;;
8327;SDS011;4201;48.754;8.864;2023-05-23T14:50:41;14.00;;;7.47;;